Time;durP1;ratioP1;P1;durP2;ratioP2;P2;SDS_P1;SDS_P2;PMS_P1;PMS_P2;Temp;Humidity;BMP_temperature;BMP_pressure;BME280_temperature;BME280_humidity;BME280_pressure;Samples;Min_cycle;Max_cycle;Signal;HPM_P1;HPM_P2
2023/01/30 00:00:30;;;;;;;53.75;44.25;;;;;;;;;;4956273;28;20445;-81
2023/01/30 00:02:56;;;;;;;54.05;43.50;;;;;;;;;;4956027;28;20505;-81
2023/01/30 00:05:22;;;;;;;57.20;44.47;;;;;;;;;;4956918;28;20417;-84
2023/01/30 00:07:48;;;;;;;55.67;45.28;;;;;;;;;;4956918;28;20422;-84
2023/01/30 00:10:14;;;;;;;56.72;44.85;;;;;;;;;;4940752;28;20528;-84
2023/01/30 00:12:40;;;;;;;56.10;45.08;;;;;;;;;;4957008;28;20421;-85
2023/01/30 00:15:07;;;;;;;53.97;44.75;;;;;;;;;;4973780;28;20411;-84
2023/01/30 00:17:33;;;;;;;54.35;44.10;;;;;;;;;;4974545;28;20425;-84
2023/01/30 00:19:59;;;;;;;55.70;45.58;;;;;;;;;;4944776;28;20422;-84
2023/01/30 00:22:25;;;;;;;55.15;44.80;;;;;;;;;;4944592;28;20441;-81
2023/01/30 00:24:51;;;;;;;55.53;46.40;;;;;;;;;;4944841;28;20416;-81
2023/01/30 00:27:17;;;;;;;59.55;46.58;;;;;;;;;;4945133;28;20418;-81
2023/01/30 00:29:43;;;;;;;59.55;46.80;;;;;;;;;;4960687;28;20418;-81
2023/01/30 00:32:09;;;;;;;57.22;47.63;;;;;;;;;;4944942;28;20417;-81
2023/01/30 00:34:35;;;;;;;58.50;47.47;;;;;;;;;;4977343;28;20406;-81
2023/01/30 00:37:01;;;;;;;57.27;46.67;;;;;;;;;;4944311;28;20468;-81
2023/01/30 00:39:27;;;;;;;58.07;47.10;;;;;;;;;;4944432;28;20422;-78
2023/01/30 00:47:22;;;;;;;64.10;48.05;;;;;;;;;;4977869;28;20461;-79
2023/01/30 00:49:48;;;;;;;58.10;46.97;;;;;;;;;;4977434;28;20407;-79
2023/01/30 00:52:14;;;;;;;58.78;47.17;;;;;;;;;;4944807;28;20498;-79
2023/01/30 00:54:40;;;;;;;57.72;47.15;;;;;;;;;;4959980;28;20448;-79
2023/01/30 00:57:06;;;;;;;62.67;47.85;;;;;;;;;;4977308;28;20445;-79
2023/01/30 00:59:32;;;;;;;63.33;47.00;;;;;;;;;;4944280;28;20476;-79
2023/01/30 01:01:58;;;;;;;59.30;47.70;;;;;;;;;;4960004;28;20442;-79
2023/01/30 01:04:24;;;;;;;59.03;46.13;;;;;;;;;;4959792;28;20424;-79
2023/01/30 01:06:50;;;;;;;58.05;47.55;;;;;;;;;;4944070;28;20432;-80
2023/01/30 01:09:16;;;;;;;58.95;46.85;;;;;;;;;;4943787;28;20426;-79
2023/01/30 01:11:42;;;;;;;58.22;47.38;;;;;;;;;;4960416;28;20430;-85
2023/01/30 01:14:08;;;;;;;59.58;47.38;;;;;;;;;;4960172;28;20426;-85
2023/01/30 01:16:35;;;;;;;57.33;46.90;;;;;;;;;;4959869;28;20434;-84
2023/01/30 01:19:01;;;;;;;59.78;47.58;;;;;;;;;;4959853;28;20448;-85
2023/01/30 01:21:27;;;;;;;59.58;46.25;;;;;;;;;;4959675;28;20441;-85
2023/01/30 01:23:58;;;;;;;59.65;46.28;;;;;;;;;;4959695;28;20414;-85
2023/01/30 01:26:25;;;;;;;60.60;46.70;;;;;;;;;;4954978;28;20430;-85
2023/01/30 01:28:55;;;;;;;58.05;46.83;;;;;;;;;;4959686;28;20406;-84
2023/01/30 01:31:22;;;;;;;53.83;46.97;;;;;;;;;;4976739;28;20410;-85
2023/01/30 01:33:49;;;;;;;59.22;47.13;;;;;;;;;;4944036;28;20419;-84
2023/01/30 01:36:15;;;;;;;58.50;46.78;;;;;;;;;;4959772;28;20415;-84
2023/01/30 01:38:41;;;;;;;60.67;47.88;;;;;;;;;;4943468;28;20453;-85
2023/01/30 01:41:08;;;;;;;59.05;48.47;;;;;;;;;;4976206;28;20426;-84
2023/01/30 01:43:58;;;;;;;63.15;47.70;;;;;;;;;;4942921;28;20443;-84
2023/01/30 01:46:27;;;;;;;60.15;48.40;;;;;;;;;;4958859;28;20442;-81
2023/01/30 01:48:55;;;;;;;60.88;49.40;;;;;;;;;;4959317;28;20414;-81
2023/01/30 01:51:27;;;;;;;62.43;49.43;;;;;;;;;;4959290;28;20434;-81
2023/01/30 01:53:57;;;;;;;62.78;48.35;;;;;;;;;;4958831;28;20476;-81
2023/01/30 01:56:23;;;;;;;60.92;49.15;;;;;;;;;;4958897;28;20483;-81
2023/01/30 01:58:57;;;;;;;64.05;49.40;;;;;;;;;;4958915;28;20419;-81
2023/01/30 02:01:24;;;;;;;59.58;48.65;;;;;;;;;;4976131;28;20422;-79
2023/01/30 02:03:53;;;;;;;62.03;48.88;;;;;;;;;;4975747;28;20418;-79
2023/01/30 02:06:19;;;;;;;62.92;49.30;;;;;;;;;;4958851;28;20426;-79
2023/01/30 02:08:48;;;;;;;60.53;48.70;;;;;;;;;;4976381;28;20419;-79
2023/01/30 02:11:33;;;;;;;60.83;48.00;;;;;;;;;;4958711;28;20421;-78
2023/01/30 02:14:00;;;;;;;55.97;46.57;;;;;;;;;;4975981;28;20414;-79
2023/01/30 02:16:26;;;;;;;63.40;47.72;;;;;;;;;;4942707;28;20439;-78
2023/01/30 02:18:52;;;;;;;58.40;47.25;;;;;;;;;;4958718;28;20411;-78
2023/01/30 02:21:44;;;;;;;58.22;47.40;;;;;;;;;;4976067;28;20410;-78
2023/01/30 02:24:10;;;;;;;63.35;47.47;;;;;;;;;;4939580;28;20422;-79
2023/01/30 02:26:46;;;;;;;58.85;46.10;;;;;;;;;;4958753;28;20418;-78
2023/01/30 02:29:12;;;;;;;53.33;45.55;;;;;;;;;;4958998;28;20445;-78
2023/01/30 02:31:56;;;;;;;55.55;45.58;;;;;;;;;;4958584;28;20436;-78
2023/01/30 02:34:42;;;;;;;48.77;35.13;;;;;;;;;;4959523;28;20256;-84
2023/01/30 02:37:29;;;;;;;52.60;34.67;;;;;;;;;;4959360;28;20145;-85
2023/01/30 02:40:06;;;;;;;57.80;45.47;;;;;;;;;;4958215;28;20415;-85
2023/01/30 02:42:51;;;;;;;57.55;45.25;;;;;;;;;;4958635;28;20441;-84
2023/01/30 02:45:29;;;;;;;58.30;44.20;;;;;;;;;;4954974;28;20439;-84
2023/01/30 02:48:05;;;;;;;58.08;43.05;;;;;;;;;;4954930;28;20419;-84
2023/01/30 02:50:42;;;;;;;57.03;42.70;;;;;;;;;;4955059;29;20448;-84
2023/01/30 02:53:08;;;;;;;58.83;43.40;;;;;;;;;;4956105;28;20407;-79
2023/01/30 02:55:35;;;;;;;53.78;41.00;;;;;;;;;;4954934;28;20488;-79
2023/01/30 02:58:03;;;;;;;53.70;40.53;;;;;;;;;;4955669;28;20423;-79
2023/01/30 03:00:29;;;;;;;52.17;39.23;;;;;;;;;;4956067;28;20447;-79
2023/01/30 03:03:09;;;;;;;47.22;36.72;;;;;;;;;;4954740;28;20522;-79
2023/01/30 03:05:44;;;;;;;45.53;36.22;;;;;;;;;;4955773;28;20404;-78
2023/01/30 03:08:10;;;;;;;44.78;33.58;;;;;;;;;;4955596;28;20411;-78
2023/01/30 03:10:36;;;;;;;42.90;31.50;;;;;;;;;;4956158;28;20487;-78
2023/01/30 03:13:18;;;;;;;41.60;30.45;;;;;;;;;;4954498;28;20423;-78
2023/01/30 03:15:48;;;;;;;40.45;28.33;;;;;;;;;;4955895;28;20419;-78
2023/01/30 03:18:16;;;;;;;38.67;28.17;;;;;;;;;;4954435;28;20407;-78
2023/01/30 03:20:42;;;;;;;31.13;21.87;;;;;;;;;;4955221;28;20194;-78
2023/01/30 03:23:08;;;;;;;32.23;21.03;;;;;;;;;;4954766;29;20207;-78
2023/01/30 03:25:36;;;;;;;34.37;21.43;;;;;;;;;;4956724;29;20186;-80
2023/01/30 03:28:03;;;;;;;33.27;20.43;;;;;;;;;;4941775;28;20198;-80
2023/01/30 03:30:29;;;;;;;26.43;19.53;;;;;;;;;;4952021;29;20186;-80
2023/01/30 03:32:55;;;;;;;30.67;20.60;;;;;;;;;;4967777;28;20262;-81
2023/01/30 03:35:21;;;;;;;29.87;19.40;;;;;;;;;;4970591;28;20191;-80
2023/01/30 03:37:47;;;;;;;27.43;17.73;;;;;;;;;;4955236;29;20250;-80
2023/01/30 03:40:14;;;;;;;29.57;18.93;;;;;;;;;;4954242;28;20194;-80
2023/01/30 03:42:40;;;;;;;32.80;18.17;;;;;;;;;;4939796;29;20277;-84
2023/01/30 03:45:07;;;;;;;33.00;18.63;;;;;;;;;;4954853;28;20219;-84
2023/01/30 03:47:33;;;;;;;31.40;18.00;;;;;;;;;;4954703;29;20186;-84
2023/01/30 03:49:59;;;;;;;28.50;17.53;;;;;;;;;;4955329;29;20190;-84
2023/01/30 03:52:25;;;;;;;25.73;17.50;;;;;;;;;;4954362;28;20219;-81
2023/01/30 03:54:51;;;;;;;31.60;17.57;;;;;;;;;;4955041;29;20258;-80
2023/01/30 03:57:17;;;;;;;27.00;17.43;;;;;;;;;;4954542;29;20190;-81
2023/01/30 03:59:43;;;;;;;25.73;16.77;;;;;;;;;;4938922;29;20183;-79
2023/01/30 04:02:10;;;;;;;28.23;17.07;;;;;;;;;;4954755;29;20218;-81
2023/01/30 04:04:36;;;;;;;26.87;17.20;;;;;;;;;;4954665;29;20179;-80
2023/01/30 04:07:02;;;;;;;24.70;16.30;;;;;;;;;;4955737;29;20206;-81
2023/01/30 04:09:28;;;;;;;25.90;16.30;;;;;;;;;;4954678;29;20262;-78
2023/01/30 04:11:54;;;;;;;24.77;16.83;;;;;;;;;;4938723;29;20274;-81
2023/01/30 04:14:20;;;;;;;24.40;15.10;;;;;;;;;;4954548;29;20183;-81
2023/01/30 04:16:46;;;;;;;26.53;16.30;;;;;;;;;;4938709;29;20187;-81
2023/01/30 04:19:12;;;;;;;27.73;16.57;;;;;;;;;;4938805;29;20218;-81
2023/01/30 04:21:38;;;;;;;25.90;16.60;;;;;;;;;;4954432;29;20191;-81
2023/01/30 04:24:04;;;;;;;29.80;16.07;;;;;;;;;;4938355;29;20254;-81
2023/01/30 04:26:30;;;;;;;27.97;16.10;;;;;;;;;;4938889;29;20183;-81
2023/01/30 04:28:56;;;;;;;29.13;16.20;;;;;;;;;;4938408;29;20183;-81
2023/01/30 04:31:22;;;;;;;25.70;15.80;;;;;;;;;;4954354;29;20216;-81
2023/01/30 04:33:48;;;;;;;28.40;16.20;;;;;;;;;;4954584;29;20203;-81
2023/01/30 04:36:14;;;;;;;27.93;16.13;;;;;;;;;;4938433;29;20180;-81
2023/01/30 04:38:40;;;;;;;29.03;16.97;;;;;;;;;;4938693;29;20194;-81
2023/01/30 04:41:06;;;;;;;27.67;15.43;;;;;;;;;;4954831;29;20187;-81
2023/01/30 04:43:32;;;;;;;30.93;15.53;;;;;;;;;;4954349;29;20219;-81
2023/01/30 04:45:58;;;;;;;28.93;15.60;;;;;;;;;;4953878;29;20258;-81
2023/01/30 04:48:25;;;;;;;26.37;14.97;;;;;;;;;;4938244;28;20196;-85
2023/01/30 04:50:52;;;;;;;29.93;15.47;;;;;;;;;;4954108;29;20207;-85
2023/01/30 04:53:19;;;;;;;29.13;14.50;;;;;;;;;;4954138;29;20187;-85
2023/01/30 04:55:45;;;;;;;33.63;15.13;;;;;;;;;;4954168;29;20183;-85
2023/01/30 04:58:11;;;;;;;28.90;15.47;;;;;;;;;;4954250;29;20218;-85
2023/01/30 05:00:37;;;;;;;26.77;15.07;;;;;;;;;;4954422;29;20189;-85
2023/01/30 05:03:05;;;;;;;29.27;15.20;;;;;;;;;;4954373;28;20215;-85
2023/01/30 05:05:31;;;;;;;31.17;14.47;;;;;;;;;;4942364;29;20183;-81
2023/01/30 05:07:57;;;;;;;25.00;13.83;;;;;;;;;;4959156;29;20171;-81
2023/01/30 05:10:23;;;;;;;29.73;13.73;;;;;;;;;;4957975;29;20195;-81
2023/01/30 05:12:49;;;;;;;25.93;13.40;;;;;;;;;;4957764;29;20274;-81
2023/01/30 05:15:15;;;;;;;26.53;13.13;;;;;;;;;;4958275;29;20265;-81
2023/01/30 05:17:41;;;;;;;19.00;12.73;;;;;;;;;;4957827;29;20175;-81
2023/01/30 05:20:08;;;;;;;32.33;12.90;;;;;;;;;;4957866;29;20198;-81
2023/01/30 05:22:34;;;;;;;23.87;12.30;;;;;;;;;;4958542;28;20211;-85
2023/01/30 05:25:00;;;;;;;25.37;11.73;;;;;;;;;;4942230;29;20274;-85
2023/01/30 05:27:26;;;;;;;27.67;11.50;;;;;;;;;;4954759;29;20266;-85
2023/01/30 05:29:52;;;;;;;25.47;10.63;;;;;;;;;;4922628;29;20184;-85
2023/01/30 05:32:19;;;;;;;21.33;9.73;;;;;;;;;;4922804;29;20184;-86
2023/01/30 05:34:45;;;;;;;20.73;8.37;;;;;;;;;;4922890;29;20188;-85
2023/01/30 05:37:11;;;;;;;21.43;9.17;;;;;;;;;;4949261;28;20196;-78
2023/01/30 05:39:37;;;;;;;22.87;8.27;;;;;;;;;;4941421;29;20187;-79
2023/01/30 05:42:04;;;;;;;22.87;7.50;;;;;;;;;;4941289;29;20219;-78
2023/01/30 05:44:30;;;;;;;23.87;6.53;;;;;;;;;;4959290;28;20187;-79
2023/01/30 05:46:56;;;;;;;17.17;6.87;;;;;;;;;;4944562;28;20183;-79
2023/01/30 05:49:22;;;;;;;17.50;6.13;;;;;;;;;;4944561;28;20191;-79
2023/01/30 05:51:48;;;;;;;15.50;5.43;;;;;;;;;;4960177;28;20265;-78
2023/01/30 05:54:14;;;;;;;20.73;6.03;;;;;;;;;;4960079;28;20197;-79
2023/01/30 05:56:40;;;;;;;15.80;5.33;;;;;;;;;;4976916;28;20187;-79
2023/01/30 05:59:07;;;;;;;13.07;5.00;;;;;;;;;;4959650;28;20187;-79
2023/01/30 06:01:33;;;;;;;18.20;5.07;;;;;;;;;;4943599;28;20194;-78
2023/01/30 06:03:59;;;;;;;19.23;5.17;;;;;;;;;;4944408;28;20183;-79
2023/01/30 06:06:25;;;;;;;11.50;4.20;;;;;;;;;;4943977;28;20183;-82
2023/01/30 06:08:55;;;;;;;17.77;4.40;;;;;;;;;;4959857;28;20179;-81
2023/01/30 06:11:21;;;;;;;12.07;4.10;;;;;;;;;;4958068;29;20266;-81
2023/01/30 06:13:47;;;;;;;12.17;4.03;;;;;;;;;;4973197;28;20241;-81
2023/01/30 06:16:14;;;;;;;14.33;4.17;;;;;;;;;;4958789;28;20218;-82
2023/01/30 06:18:40;;;;;;;17.17;4.40;;;;;;;;;;4977122;28;20179;-82
2023/01/30 06:21:06;;;;;;;14.43;4.07;;;;;;;;;;4959469;28;20197;-82
2023/01/30 06:23:32;;;;;;;20.60;4.17;;;;;;;;;;4954857;28;20207;-82
2023/01/30 06:25:58;;;;;;;20.93;4.23;;;;;;;;;;4976635;28;20171;-82
2023/01/30 06:28:25;;;;;;;18.87;3.80;;;;;;;;;;4940837;29;20183;-85
2023/01/30 06:30:51;;;;;;;17.53;4.00;;;;;;;;;;4945937;28;20210;-85
2023/01/30 06:33:17;;;;;;;17.30;3.90;;;;;;;;;;4950843;28;20183;-85
2023/01/30 06:35:44;;;;;;;16.20;3.63;;;;;;;;;;4947967;29;20191;-85
2023/01/30 06:38:12;;;;;;;16.33;3.50;;;;;;;;;;4948304;29;20208;-85
2023/01/30 06:40:38;;;;;;;14.80;3.53;;;;;;;;;;4945414;28;20187;-85
2023/01/30 06:43:14;;;;;;;18.33;3.60;;;;;;;;;;4951006;28;20210;-85
2023/01/30 06:45:40;;;;;;;13.43;3.30;;;;;;;;;;4956287;28;20222;-79
2023/01/30 06:48:06;;;;;;;16.83;3.67;;;;;;;;;;4930057;28;20187;-79
2023/01/30 06:50:33;;;;;;;19.87;4.10;;;;;;;;;;4948260;29;20188;-79
2023/01/30 06:53:01;;;;;;;14.67;3.90;;;;;;;;;;4940223;28;20183;-79
2023/01/30 06:55:27;;;;;;;19.17;4.17;;;;;;;;;;4957271;28;20179;-79
2023/01/30 06:58:03;;;;;;;24.63;4.80;;;;;;;;;;4924252;29;20195;-79
2023/01/30 07:00:30;;;;;;;18.47;4.20;;;;;;;;;;4939814;29;20179;-79
2023/01/30 07:02:59;;;;;;;15.70;3.40;;;;;;;;;;4940378;29;20290;-85
2023/01/30 07:05:25;;;;;;;20.57;4.20;;;;;;;;;;4924053;28;20180;-86
2023/01/30 07:07:52;;;;;;;20.10;4.40;;;;;;;;;;4924233;29;20188;-85
2023/01/30 07:10:18;;;;;;;20.83;4.20;;;;;;;;;;4924250;29;20311;-85
2023/01/30 07:12:45;;;;;;;18.57;4.00;;;;;;;;;;4930097;28;20186;-85
2023/01/30 07:15:11;;;;;;;16.47;3.60;;;;;;;;;;4943018;28;20217;-86
2023/01/30 07:17:37;;;;;;;16.93;3.60;;;;;;;;;;4958908;28;20222;-82
2023/01/30 07:20:03;;;;;;;20.83;4.27;;;;;;;;;;4943191;28;20238;-82
2023/01/30 07:22:29;;;;;;;18.00;3.73;;;;;;;;;;4943073;28;20279;-81
2023/01/30 07:24:55;;;;;;;17.00;4.07;;;;;;;;;;4943161;28;20210;-81
2023/01/30 07:27:21;;;;;;;20.23;4.47;;;;;;;;;;4942790;28;20194;-81
2023/01/30 07:29:47;;;;;;;17.30;4.17;;;;;;;;;;4955490;29;20183;-81
2023/01/30 07:32:14;;;;;;;19.73;4.40;;;;;;;;;;4955202;29;20188;-81
2023/01/30 07:34:40;;;;;;;24.57;4.13;;;;;;;;;;4939218;29;20183;-81
2023/01/30 07:37:06;;;;;;;13.20;4.27;;;;;;;;;;4955389;29;20184;-81
2023/01/30 07:39:34;;;;;;;22.57;4.10;;;;;;;;;;4955155;29;20290;-81
2023/01/30 07:42:00;;;;;;;20.87;4.07;;;;;;;;;;4955399;29;20299;-81
2023/01/30 07:44:26;;;;;;;20.30;4.40;;;;;;;;;;4955457;29;20195;-81
2023/01/30 07:46:52;;;;;;;23.27;4.13;;;;;;;;;;4948113;28;20237;-81
2023/01/30 07:49:18;;;;;;;21.17;4.80;;;;;;;;;;4942571;28;20182;-81
2023/01/30 07:51:45;;;;;;;27.47;5.33;;;;;;;;;;4937026;29;20191;-79
2023/01/30 07:54:13;;;;;;;19.60;4.80;;;;;;;;;;4956077;29;20179;-79
2023/01/30 07:56:40;;;;;;;23.17;6.33;;;;;;;;;;4939028;29;20237;-78
2023/01/30 07:59:06;;;;;;;22.67;7.87;;;;;;;;;;4954089;23;20186;-82
2023/01/30 08:01:32;;;;;;;24.90;5.27;;;;;;;;;;4976961;28;20208;-79
2023/01/30 08:03:58;;;;;;;24.57;5.10;;;;;;;;;;4977781;28;20178;-79
2023/01/30 08:06:24;;;;;;;46.73;22.80;;;;;;;;;;4977498;28;20181;-79
2023/01/30 08:08:50;;;;;;;28.17;8.63;;;;;;;;;;4977507;28;20329;-78
2023/01/30 08:11:17;;;;;;;23.00;6.77;;;;;;;;;;4977493;28;20184;-78
2023/01/30 08:13:43;;;;;;;27.43;8.67;;;;;;;;;;4977678;28;20178;-77
2023/01/30 08:16:09;;;;;;;22.07;5.90;;;;;;;;;;4961482;28;20186;-78
2023/01/30 08:18:35;;;;;;;24.13;4.90;;;;;;;;;;4977569;28;20178;-77
2023/01/30 08:21:02;;;;;;;23.70;6.00;;;;;;;;;;4961574;28;20208;-78
2023/01/30 08:23:28;;;;;;;26.23;6.00;;;;;;;;;;4961276;28;20232;-77
2023/01/30 08:25:55;;;;;;;25.03;5.83;;;;;;;;;;4977361;28;20178;-79
2023/01/30 08:28:21;;;;;;;21.70;4.67;;;;;;;;;;4994770;28;20202;-79
2023/01/30 08:30:48;;;;;;;21.03;5.17;;;;;;;;;;4977388;28;20186;-79
2023/01/30 08:33:14;;;;;;;22.30;5.13;;;;;;;;;;4961350;28;20189;-79
2023/01/30 08:35:40;;;;;;;21.63;4.17;;;;;;;;;;4977354;28;20282;-79
2023/01/30 08:38:09;;;;;;;21.20;4.40;;;;;;;;;;4994609;28;20182;-79
2023/01/30 08:40:36;;;;;;;21.70;5.00;;;;;;;;;;4972197;28;20203;-79
2023/01/30 08:43:02;;;;;;;23.27;4.80;;;;;;;;;;4977675;28;20241;-82
2023/01/30 08:45:28;;;;;;;20.90;4.27;;;;;;;;;;4977772;28;20186;-82
2023/01/30 08:47:58;;;;;;;20.03;4.43;;;;;;;;;;4977729;28;20194;-82
2023/01/30 08:50:23;;;;;;;24.37;4.60;;;;;;;;;;4961995;28;20186;-83
2023/01/30 08:52:50;;;;;;;27.60;4.87;;;;;;;;;;4972610;28;20198;-82
2023/01/30 08:55:16;;;;;;;22.47;5.23;;;;;;;;;;4961783;28;20191;-83
2023/01/30 08:57:42;;;;;;;19.70;4.30;;;;;;;;;;4961350;28;20182;-79
2023/01/30 09:00:09;;;;;;;19.13;4.47;;;;;;;;;;4977599;28;20296;-79
2023/01/30 09:02:35;;;;;;;18.20;4.37;;;;;;;;;;4977197;28;20221;-79
2023/01/30 09:05:01;;;;;;;18.93;4.63;;;;;;;;;;4977352;28;20178;-79
2023/01/30 09:07:27;;;;;;;18.57;4.70;;;;;;;;;;4977581;28;20186;-79
2023/01/30 09:09:54;;;;;;;15.63;4.17;;;;;;;;;;4977568;28;20178;-79
2023/01/30 09:12:20;;;;;;;25.93;4.47;;;;;;;;;;4978254;28;20182;-79
2023/01/30 09:14:46;;;;;;;20.43;4.53;;;;;;;;;;4977671;28;20197;-79
2023/01/30 09:17:12;;;;;;;18.47;4.63;;;;;;;;;;4961178;28;20198;-79
2023/01/30 09:19:38;;;;;;;21.27;4.37;;;;;;;;;;4977280;28;20186;-79
2023/01/30 09:22:06;;;;;;;18.23;4.37;;;;;;;;;;4978152;28;20217;-79
2023/01/30 09:24:32;;;;;;;20.40;4.20;;;;;;;;;;4960742;28;20182;-80
2023/01/30 09:26:58;;;;;;;20.03;4.73;;;;;;;;;;4961288;28;20182;-80
2023/01/30 09:29:27;;;;;;;17.87;4.13;;;;;;;;;;4960926;28;20191;-79
2023/01/30 09:31:55;;;;;;;15.57;4.33;;;;;;;;;;4960956;28;20183;-78
2023/01/30 09:34:26;;;;;;;19.13;4.23;;;;;;;;;;4976980;28;20186;-78
2023/01/30 09:36:52;;;;;;;22.23;4.60;;;;;;;;;;4960847;28;20190;-78
2023/01/30 09:39:18;;;;;;;19.23;4.13;;;;;;;;;;4977958;28;20234;-78
2023/01/30 09:42:07;;;;;;;20.47;4.50;;;;;;;;;;4977800;28;20179;-78
2023/01/30 09:44:39;;;;;;;24.90;4.47;;;;;;;;;;4960796;28;20182;-78
2023/01/30 09:47:08;;;;;;;16.90;4.10;;;;;;;;;;4961047;28;20187;-78
2023/01/30 09:49:52;;;;;;;22.37;3.90;;;;;;;;;;4965091;28;20187;-83
2023/01/30 09:52:34;;;;;;;18.47;4.37;;;;;;;;;;4979708;28;20178;-83
2023/01/30 09:55:09;;;;;;;25.80;4.83;;;;;;;;;;4979596;28;20281;-83
2023/01/30 09:57:35;;;;;;;18.03;4.33;;;;;;;;;;4979703;28;20188;-83
2023/01/30 10:00:24;;;;;;;26.90;5.07;;;;;;;;;;4963784;28;20234;-83
2023/01/30 10:02:58;;;;;;;17.27;3.97;;;;;;;;;;4979956;28;20206;-83
2023/01/30 10:05:30;;;;;;;17.90;4.20;;;;;;;;;;4980356;28;20278;-86
2023/01/30 10:08:09;;;;;;;21.90;4.33;;;;;;;;;;4979700;28;20181;-86
2023/01/30 10:10:47;;;;;;;17.90;3.93;;;;;;;;;;4979655;28;20281;-88
2023/01/30 10:13:35;;;;;;;21.73;4.53;;;;;;;;;;4979731;28;20178;-87
2023/01/30 10:16:06;;;;;;;19.40;4.20;;;;;;;;;;4982167;28;20189;-87
2023/01/30 10:18:53;;;;;;;22.13;4.20;;;;;;;;;;4982752;28;20190;-87
2023/01/30 10:21:25;;;;;;;20.55;4.82;;;;;;;;;;4968589;28;20421;-87
2023/01/30 10:24:16;;;;;;;19.90;4.47;;;;;;;;;;4980443;28;20271;-86
2023/01/30 10:26:43;;;;;;;24.23;5.35;;;;;;;;;;4970279;28;20404;-86
2023/01/30 10:29:12;;;;;;;20.00;4.23;;;;;;;;;;4979187;28;20177;-87
2023/01/30 10:31:58;;;;;;;22.73;5.10;;;;;;;;;;4978859;28;20420;-87
2023/01/30 10:34:27;;;;;;;22.92;5.63;;;;;;;;;;4995658;28;20417;-87
2023/01/30 10:36:58;;;;;;;23.38;5.70;;;;;;;;;;4979525;28;20401;-87
2023/01/30 10:39:29;;;;;;;24.70;5.50;;;;;;;;;;4995573;28;20413;-79
2023/01/30 10:42:05;;;;;;;22.47;5.37;;;;;;;;;;4995067;28;20424;-79
2023/01/30 10:44:32;;;;;;;22.73;5.45;;;;;;;;;;4977707;28;20409;-79
2023/01/30 10:47:06;;;;;;;21.35;5.35;;;;;;;;;;4977956;28;20404;-79
2023/01/30 10:49:35;;;;;;;21.95;5.43;;;;;;;;;;4977930;28;20604;-79
2023/01/30 10:52:19;;;;;;;20.53;5.40;;;;;;;;;;4978019;28;20428;-79
2023/01/30 10:54:53;;;;;;;25.02;5.70;;;;;;;;;;4977190;28;20417;-79
2023/01/30 10:57:25;;;;;;;20.65;5.10;;;;;;;;;;4977756;28;20500;-79
2023/01/30 11:00:01;;;;;;;20.38;4.95;;;;;;;;;;4977949;28;20432;-79
2023/01/30 11:02:36;;;;;;;23.05;5.30;;;;;;;;;;4994545;28;20519;-79
2023/01/30 11:05:25;;;;;;;21.80;5.35;;;;;;;;;;4977941;28;20415;-79
2023/01/30 11:07:51;;;;;;;24.55;5.25;;;;;;;;;;4967946;28;20411;-79
2023/01/30 11:10:25;;;;;;;21.58;4.80;;;;;;;;;;4977580;28;20427;-79
2023/01/30 11:13:08;;;;;;;20.88;5.03;;;;;;;;;;4977565;28;20432;-83
2023/01/30 11:15:41;;;;;;;17.67;4.78;;;;;;;;;;4995172;28;20416;-83
2023/01/30 11:18:07;;;;;;;14.40;3.67;;;;;;;;;;4978174;28;20209;-83
2023/01/30 11:20:39;;;;;;;17.93;4.80;;;;;;;;;;4977943;28;20496;-83
2023/01/30 11:23:21;;;;;;;16.13;4.70;;;;;;;;;;4977423;28;20460;-83
2023/01/30 11:25:48;;;;;;;15.67;3.93;;;;;;;;;;4977778;28;20185;-83
2023/01/30 11:28:18;;;;;;;21.17;4.50;;;;;;;;;;4972736;28;20237;-79
2023/01/30 11:30:48;;;;;;;17.83;4.70;;;;;;;;;;4995051;28;20475;-79
2023/01/30 11:33:16;;;;;;;18.77;5.32;;;;;;;;;;4994605;28;20401;-79
2023/01/30 11:35:56;;;;;;;18.55;5.30;;;;;;;;;;4977126;28;20420;-80
2023/01/30 11:38:22;;;;;;;21.05;5.00;;;;;;;;;;4977092;28;20416;-80
2023/01/30 11:40:48;;;;;;;20.52;4.70;;;;;;;;;;4994351;28;20412;-80
2023/01/30 11:43:14;;;;;;;19.23;5.17;;;;;;;;;;4961027;28;20432;-80
2023/01/30 11:45:44;;;;;;;20.38;5.00;;;;;;;;;;4978226;28;20435;-87
2023/01/30 11:48:16;;;;;;;19.33;4.90;;;;;;;;;;4995865;28;20401;-88
2023/01/30 11:50:43;;;;;;;19.77;5.00;;;;;;;;;;4978908;28;20420;-88
2023/01/30 11:53:35;;;;;;;23.20;5.20;;;;;;;;;;4979225;28;20408;-87
2023/01/30 11:56:14;;;;;;;22.02;5.13;;;;;;;;;;4957243;28;20517;-87
2023/01/30 11:58:45;;;;;;;22.38;5.47;;;;;;;;;;4976458;28;20410;-87
2023/01/30 12:01:11;;;;;;;22.52;5.55;;;;;;;;;;4976588;28;20438;-80
2023/01/30 12:03:57;;;;;;;23.60;5.80;;;;;;;;;;4957863;28;20528;-79
2023/01/30 12:06:28;;;;;;;20.85;5.20;;;;;;;;;;4974198;28;20399;-79
2023/01/30 12:08:54;;;;;;;19.63;5.47;;;;;;;;;;4973427;28;20437;-79
2023/01/30 12:11:23;;;;;;;19.03;5.13;;;;;;;;;;4957229;28;20425;-79
2023/01/30 12:13:50;;;;;;;20.48;5.20;;;;;;;;;;4975687;28;20417;-79
2023/01/30 12:16:24;;;;;;;19.33;5.30;;;;;;;;;;4977393;28;20410;-79
2023/01/30 12:18:56;;;;;;;22.25;5.28;;;;;;;;;;4978764;28;20413;-87
2023/01/30 12:21:45;;;;;;;21.13;4.75;;;;;;;;;;4978264;28;20425;-87
2023/01/30 12:24:19;;;;;;;18.05;5.38;;;;;;;;;;4977535;28;20433;-87
2023/01/30 12:26:47;;;;;;;20.88;4.90;;;;;;;;;;4978213;28;20409;-87
2023/01/30 12:29:22;;;;;;;24.40;5.63;;;;;;;;;;4977295;28;20452;-87
2023/01/30 12:32:07;;;;;;;24.65;6.10;;;;;;;;;;4994600;28;20404;-88
2023/01/30 12:34:33;;;;;;;21.20;5.30;;;;;;;;;;4980285;28;20401;-78
2023/01/30 12:37:02;;;;;;;23.20;5.80;;;;;;;;;;4980498;28;20401;-78
2023/01/30 12:39:47;;;;;;;21.20;5.57;;;;;;;;;;4980305;28;20401;-78
2023/01/30 12:42:34;;;;;;;24.90;5.90;;;;;;;;;;4979977;28;20467;-78
2023/01/30 12:45:10;;;;;;;22.93;5.27;;;;;;;;;;4997573;28;20405;-78
2023/01/30 12:47:36;;;;;;;18.60;5.10;;;;;;;;;;4980593;28;20535;-78
2023/01/30 12:50:21;;;;;;;22.13;5.25;;;;;;;;;;4980560;28;20417;-78
2023/01/30 12:52:50;;;;;;;18.85;5.20;;;;;;;;;;4979925;28;20419;-82
2023/01/30 12:55:29;;;;;;;22.63;5.33;;;;;;;;;;4997651;28;20416;-83
2023/01/30 12:58:10;;;;;;;23.95;5.60;;;;;;;;;;4997279;28;20416;-82
2023/01/30 13:00:45;;;;;;;22.05;5.55;;;;;;;;;;4979783;28;20443;-82
2023/01/30 13:03:19;;;;;;;19.88;5.13;;;;;;;;;;4979813;28;20433;-83
2023/01/30 13:05:52;;;;;;;23.77;5.78;;;;;;;;;;4979722;28;20420;-82
2023/01/30 13:08:21;;;;;;;21.17;5.30;;;;;;;;;;4980219;28;20487;-86
2023/01/30 13:11:15;;;;;;;21.90;5.37;;;;;;;;;;4997240;28;20412;-87
2023/01/30 13:13:52;;;;;;;22.92;5.95;;;;;;;;;;4979902;28;20421;-88
2023/01/30 13:16:30;;;;;;;22.85;5.75;;;;;;;;;;4979944;28;20426;-87
2023/01/30 13:19:02;;;;;;;21.63;5.50;;;;;;;;;;4979567;28;20420;-87
2023/01/30 13:21:44;;;;;;;23.27;5.90;;;;;;;;;;4998209;28;20451;-87
2023/01/30 13:24:10;;;;;;;28.73;6.20;;;;;;;;;;4980124;28;20450;-78
2023/01/30 13:26:37;;;;;;;27.35;6.00;;;;;;;;;;4979148;28;20424;-78
2023/01/30 13:29:09;;;;;;;26.42;6.03;;;;;;;;;;4978636;28;20434;-78
2023/01/30 13:31:38;;;;;;;23.13;5.68;;;;;;;;;;4976842;28;20399;-78
2023/01/30 13:34:03;;;;;;;23.23;5.70;;;;;;;;;;4977263;28;20416;-78
2023/01/30 13:36:44;;;;;;;24.42;5.93;;;;;;;;;;4976837;28;20410;-78
2023/01/30 13:39:12;;;;;;;25.38;6.10;;;;;;;;;;4975912;28;20465;-78
2023/01/30 13:41:43;;;;;;;22.60;5.47;;;;;;;;;;4977445;28;20471;-83
2023/01/30 13:44:35;;;;;;;25.37;6.07;;;;;;;;;;4976159;28;20521;-83
2023/01/30 13:47:13;;;;;;;24.77;6.07;;;;;;;;;;4973765;28;20441;-83
2023/01/30 13:50:03;;;;;;;23.02;5.60;;;;;;;;;;4975877;28;20441;-82
2023/01/30 13:52:33;;;;;;;21.85;6.03;;;;;;;;;;4970535;28;20505;-83
2023/01/30 13:54:59;;;;;;;23.02;5.72;;;;;;;;;;4975864;28;20406;-82
2023/01/30 13:57:25;;;;;;;23.67;6.22;;;;;;;;;;4975312;28;20551;-79
2023/01/30 13:59:58;;;;;;;27.30;6.20;;;;;;;;;;4991975;23;20471;-85
2023/01/30 14:02:24;;;;;;;24.73;6.10;;;;;;;;;;4975054;28;20453;-84
2023/01/30 14:04:51;;;;;;;25.85;5.70;;;;;;;;;;4974763;28;20453;-84
2023/01/30 14:07:26;;;;;;;21.77;5.47;;;;;;;;;;4976088;28;20438;-84
2023/01/30 14:09:52;;;;;;;21.60;5.63;;;;;;;;;;4975230;28;20402;-84
2023/01/30 14:12:25;;;;;;;25.73;5.97;;;;;;;;;;4976556;28;20414;-84
2023/01/30 14:15:02;;;;;;;26.30;6.07;;;;;;;;;;4975206;28;20534;-81
2023/01/30 14:17:29;;;;;;;26.38;5.90;;;;;;;;;;4975091;28;20437;-81
2023/01/30 14:20:00;;;;;;;20.92;5.32;;;;;;;;;;4974744;28;20418;-81
2023/01/30 14:22:26;;;;;;;24.73;6.30;;;;;;;;;;4974839;28;20434;-81
2023/01/30 14:25:11;;;;;;;25.43;6.07;;;;;;;;;;4974643;28;20486;-81
2023/01/30 14:27:37;;;;;;;17.73;5.00;;;;;;;;;;4976873;28;20433;-81
2023/01/30 14:30:23;;;;;;;22.92;5.65;;;;;;;;;;4974564;28;20449;-81
2023/01/30 14:32:53;;;;;;;24.02;6.03;;;;;;;;;;4975107;28;20410;-79
2023/01/30 14:35:21;;;;;;;24.50;6.13;;;;;;;;;;4974991;28;20410;-79
2023/01/30 14:37:48;;;;;;;22.90;5.80;;;;;;;;;;4973940;28;20410;-79
2023/01/30 14:40:20;;;;;;;21.70;5.70;;;;;;;;;;4975173;28;20414;-79
2023/01/30 14:43:05;;;;;;;28.00;5.93;;;;;;;;;;4974838;28;20434;-79
2023/01/30 14:45:50;;;;;;;23.70;6.20;;;;;;;;;;4976138;28;20402;-79